sensor_id;sensor_type;location;lat;lon;timestamp;P1;durP1;ratioP1;P2;durP2;ratioP2
12474;SDS011;6302;42.624;23.334;2023-05-10T00:01:30;5.47;;;4.90;;
12474;SDS011;6302;42.624;23.334;2023-05-10T00:03:56;5.93;;;5.40;;
12474;SDS011;6302;42.624;23.334;2023-05-10T00:06:23;5.90;;;5.40;;
12474;SDS011;6302;42.624;23.334;2023-05-10T00:08:50;5.97;;;5.40;;
12474;SDS011;6302;42.624;23.334;2023-05-10T00:11:17;5.60;;;5.10;;
12474;SDS011;6302;42.624;23.334;2023-05-10T00:13:44;5.83;;;5.23;;
12474;SDS011;6302;42.624;23.334;2023-05-10T00:16:12;6.33;;;5.33;;
12474;SDS011;6302;42.624;23.334;2023-05-10T00:18:39;6.50;;;5.90;;
12474;SDS011;6302;42.624;23.334;2023-05-10T00:21:06;6.67;;;5.70;;
12474;SDS011;6302;42.624;23.334;2023-05-10T00:23:32;7.10;;;5.97;;
12474;SDS011;6302;42.624;23.334;2023-05-10T00:25:59;6.83;;;6.13;;
12474;SDS011;6302;42.624;23.334;2023-05-10T00:28:27;5.77;;;5.27;;
12474;SDS011;6302;42.624;23.334;2023-05-10T00:30:53;7.10;;;6.40;;
12474;SDS011;6302;42.624;23.334;2023-05-10T00:33:22;7.20;;;5.97;;
12474;SDS011;6302;42.624;23.334;2023-05-10T00:35:48;7.27;;;6.10;;
12474;SDS011;6302;42.624;23.334;2023-05-10T00:38:15;6.90;;;6.20;;
12474;SDS011;6302;42.624;23.334;2023-05-10T00:40:42;6.80;;;6.20;;
12474;SDS011;6302;42.624;23.334;2023-05-10T00:43:09;6.67;;;6.03;;
12474;SDS011;6302;42.624;23.334;2023-05-10T00:45:36;6.70;;;6.00;;
12474;SDS011;6302;42.624;23.334;2023-05-10T00:48:04;7.90;;;5.97;;
12474;SDS011;6302;42.624;23.334;2023-05-10T00:50:33;7.07;;;6.37;;
12474;SDS011;6302;42.624;23.334;2023-05-10T00:53:00;7.23;;;6.53;;
12474;SDS011;6302;42.624;23.334;2023-05-10T00:55:28;8.17;;;5.97;;
12474;SDS011;6302;42.624;23.334;2023-05-10T00:57:56;7.00;;;6.30;;
12474;SDS011;6302;42.624;23.334;2023-05-10T01:00:23;7.27;;;6.27;;
12474;SDS011;6302;42.624;23.334;2023-05-10T01:02:50;7.57;;;6.67;;
12474;SDS011;6302;42.624;23.334;2023-05-10T01:05:18;7.53;;;6.73;;
12474;SDS011;6302;42.624;23.334;2023-05-10T01:07:46;7.73;;;6.93;;
12474;SDS011;6302;42.624;23.334;2023-05-10T01:10:13;6.80;;;6.10;;
12474;SDS011;6302;42.624;23.334;2023-05-10T01:12:41;7.00;;;6.30;;
12474;SDS011;6302;42.624;23.334;2023-05-10T01:15:11;6.53;;;5.93;;
12474;SDS011;6302;42.624;23.334;2023-05-10T01:17:40;7.00;;;6.30;;
12474;SDS011;6302;42.624;23.334;2023-05-10T01:20:10;7.93;;;6.13;;
12474;SDS011;6302;42.624;23.334;2023-05-10T01:22:46;7.10;;;6.10;;
12474;SDS011;6302;42.624;23.334;2023-05-10T01:25:55;7.40;;;6.47;;
12474;SDS011;6302;42.624;23.334;2023-05-10T01:28:47;6.00;;;5.50;;
12474;SDS011;6302;42.624;23.334;2023-05-10T01:31:30;5.70;;;5.20;;
12474;SDS011;6302;42.624;23.334;2023-05-10T01:34:11;4.87;;;4.47;;
12474;SDS011;6302;42.624;23.334;2023-05-10T01:36:43;5.60;;;5.10;;
12474;SDS011;6302;42.624;23.334;2023-05-10T01:39:15;6.13;;;5.63;;
12474;SDS011;6302;42.624;23.334;2023-05-10T01:41:48;5.50;;;5.00;;
12474;SDS011;6302;42.624;23.334;2023-05-10T01:44:20;5.00;;;4.60;;
12474;SDS011;6302;42.624;23.334;2023-05-10T01:46:57;5.30;;;4.73;;
12474;SDS011;6302;42.624;23.334;2023-05-10T01:49:31;4.77;;;4.37;;
12474;SDS011;6302;42.624;23.334;2023-05-10T01:52:04;4.60;;;4.20;;
12474;SDS011;6302;42.624;23.334;2023-05-10T01:54:34;4.33;;;4.03;;
12474;SDS011;6302;42.624;23.334;2023-05-10T01:57:05;4.10;;;3.80;;
12474;SDS011;6302;42.624;23.334;2023-05-10T01:59:35;4.50;;;4.10;;
12474;SDS011;6302;42.624;23.334;2023-05-10T02:02:05;4.03;;;3.73;;
12474;SDS011;6302;42.624;23.334;2023-05-10T02:04:38;3.80;;;3.50;;
12474;SDS011;6302;42.624;23.334;2023-05-10T02:07:07;4.33;;;3.90;;
12474;SDS011;6302;42.624;23.334;2023-05-10T02:09:35;3.50;;;3.20;;
12474;SDS011;6302;42.624;23.334;2023-05-10T02:12:03;3.70;;;3.40;;
12474;SDS011;6302;42.624;23.334;2023-05-10T02:14:35;3.67;;;3.30;;
12474;SDS011;6302;42.624;23.334;2023-05-10T02:17:04;3.50;;;3.20;;
12474;SDS011;6302;42.624;23.334;2023-05-10T02:19:33;4.47;;;4.07;;
12474;SDS011;6302;42.624;23.334;2023-05-10T02:22:04;4.47;;;4.07;;
12474;SDS011;6302;42.624;23.334;2023-05-10T02:24:33;5.23;;;3.90;;
12474;SDS011;6302;42.624;23.334;2023-05-10T02:27:01;4.60;;;4.20;;
12474;SDS011;6302;42.624;23.334;2023-05-10T02:29:29;4.73;;;4.23;;
12474;SDS011;6302;42.624;23.334;2023-05-10T02:31:58;8.43;;;4.67;;
12474;SDS011;6302;42.624;23.334;2023-05-10T02:34:26;5.40;;;4.43;;
12474;SDS011;6302;42.624;23.334;2023-05-10T02:36:54;4.80;;;4.23;;
12474;SDS011;6302;42.624;23.334;2023-05-10T02:39:23;7.20;;;4.60;;
12474;SDS011;6302;42.624;23.334;2023-05-10T02:41:53;4.77;;;4.37;;
12474;SDS011;6302;42.624;23.334;2023-05-10T02:44:21;4.60;;;4.10;;
12474;SDS011;6302;42.624;23.334;2023-05-10T02:46:49;4.70;;;4.30;;
12474;SDS011;6302;42.624;23.334;2023-05-10T02:49:17;4.17;;;3.87;;
12474;SDS011;6302;42.624;23.334;2023-05-10T02:51:47;4.27;;;3.87;;
12474;SDS011;6302;42.624;23.334;2023-05-10T02:54:18;4.57;;;4.17;;
12474;SDS011;6302;42.624;23.334;2023-05-10T02:56:50;4.43;;;4.03;;
12474;SDS011;6302;42.624;23.334;2023-05-10T02:59:20;4.70;;;4.30;;
12474;SDS011;6302;42.624;23.334;2023-05-10T03:01:46;4.30;;;3.90;;
12474;SDS011;6302;42.624;23.334;2023-05-10T03:04:13;4.53;;;4.10;;
12474;SDS011;6302;42.624;23.334;2023-05-10T03:06:40;4.33;;;3.77;;
12474;SDS011;6302;42.624;23.334;2023-05-10T03:09:07;3.83;;;3.53;;
12474;SDS011;6302;42.624;23.334;2023-05-10T03:11:39;4.17;;;3.77;;
12474;SDS011;6302;42.624;23.334;2023-05-10T03:14:21;3.70;;;3.40;;
12474;SDS011;6302;42.624;23.334;2023-05-10T03:17:04;4.20;;;3.90;;
12474;SDS011;6302;42.624;23.334;2023-05-10T03:19:38;4.43;;;4.03;;
12474;SDS011;6302;42.624;23.334;2023-05-10T03:22:10;4.63;;;4.23;;
12474;SDS011;6302;42.624;23.334;2023-05-10T03:24:39;5.23;;;4.10;;
12474;SDS011;6302;42.624;23.334;2023-05-10T03:27:08;4.17;;;3.83;;
12474;SDS011;6302;42.624;23.334;2023-05-10T03:29:38;4.40;;;4.00;;
12474;SDS011;6302;42.624;23.334;2023-05-10T03:32:05;4.10;;;3.80;;
12474;SDS011;6302;42.624;23.334;2023-05-10T03:34:33;4.23;;;3.77;;
12474;SDS011;6302;42.624;23.334;2023-05-10T03:37:01;4.93;;;4.53;;
12474;SDS011;6302;42.624;23.334;2023-05-10T03:39:28;5.10;;;4.37;;
12474;SDS011;6302;42.624;23.334;2023-05-10T03:41:54;5.43;;;5.00;;
12474;SDS011;6302;42.624;23.334;2023-05-10T03:44:21;4.90;;;4.50;;
12474;SDS011;6302;42.624;23.334;2023-05-10T03:46:49;4.93;;;4.43;;
12474;SDS011;6302;42.624;23.334;2023-05-10T03:49:16;7.00;;;5.60;;
12474;SDS011;6302;42.624;23.334;2023-05-10T03:51:43;5.20;;;4.70;;
12474;SDS011;6302;42.624;23.334;2023-05-10T03:54:10;6.27;;;5.67;;
12474;SDS011;6302;42.624;23.334;2023-05-10T03:56:36;5.37;;;4.87;;
12474;SDS011;6302;42.624;23.334;2023-05-10T03:59:03;6.20;;;5.60;;
12474;SDS011;6302;42.624;23.334;2023-05-10T04:01:32;5.63;;;5.13;;
12474;SDS011;6302;42.624;23.334;2023-05-10T04:04:00;7.80;;;5.40;;
12474;SDS011;6302;42.624;23.334;2023-05-10T04:06:27;6.50;;;5.90;;
12474;SDS011;6302;42.624;23.334;2023-05-10T04:08:54;6.00;;;5.40;;
12474;SDS011;6302;42.624;23.334;2023-05-10T04:11:21;6.63;;;6.03;;
12474;SDS011;6302;42.624;23.334;2023-05-10T04:13:49;9.87;;;5.30;;
12474;SDS011;6302;42.624;23.334;2023-05-10T04:16:16;7.00;;;5.63;;
12474;SDS011;6302;42.624;23.334;2023-05-10T04:18:43;6.53;;;5.60;;
12474;SDS011;6302;42.624;23.334;2023-05-10T04:21:14;6.40;;;5.80;;
12474;SDS011;6302;42.624;23.334;2023-05-10T04:23:41;5.70;;;5.20;;
12474;SDS011;6302;42.624;23.334;2023-05-10T04:26:08;6.50;;;5.90;;
12474;SDS011;6302;42.624;23.334;2023-05-10T04:28:35;7.93;;;6.57;;
12474;SDS011;6302;42.624;23.334;2023-05-10T04:31:02;6.67;;;5.40;;
12474;SDS011;6302;42.624;23.334;2023-05-10T04:33:29;6.77;;;5.97;;
12474;SDS011;6302;42.624;23.334;2023-05-10T04:35:57;6.30;;;5.70;;
12474;SDS011;6302;42.624;23.334;2023-05-10T04:38:25;6.63;;;5.93;;
12474;SDS011;6302;42.624;23.334;2023-05-10T04:40:52;6.17;;;5.57;;
12474;SDS011;6302;42.624;23.334;2023-05-10T04:43:18;5.30;;;4.80;;
12474;SDS011;6302;42.624;23.334;2023-05-10T04:45:45;7.10;;;5.90;;
12474;SDS011;6302;42.624;23.334;2023-05-10T04:48:12;7.00;;;5.67;;
12474;SDS011;6302;42.624;23.334;2023-05-10T04:50:39;5.60;;;5.10;;
12474;SDS011;6302;42.624;23.334;2023-05-10T04:53:06;6.17;;;5.57;;
12474;SDS011;6302;42.624;23.334;2023-05-10T04:55:34;6.17;;;5.17;;
12474;SDS011;6302;42.624;23.334;2023-05-10T04:58:02;5.90;;;5.40;;
12474;SDS011;6302;42.624;23.334;2023-05-10T05:00:28;7.87;;;5.80;;
12474;SDS011;6302;42.624;23.334;2023-05-10T05:02:55;5.57;;;5.07;;
12474;SDS011;6302;42.624;23.334;2023-05-10T05:05:22;5.80;;;4.80;;
12474;SDS011;6302;42.624;23.334;2023-05-10T05:07:50;5.73;;;5.23;;
12474;SDS011;6302;42.624;23.334;2023-05-10T05:10:16;5.53;;;5.03;;
12474;SDS011;6302;42.624;23.334;2023-05-10T05:12:45;6.00;;;5.47;;
12474;SDS011;6302;42.624;23.334;2023-05-10T05:15:12;8.00;;;5.80;;
12474;SDS011;6302;42.624;23.334;2023-05-10T05:17:40;5.30;;;4.80;;
12474;SDS011;6302;42.624;23.334;2023-05-10T05:20:07;5.57;;;5.07;;
12474;SDS011;6302;42.624;23.334;2023-05-10T05:22:35;5.60;;;5.10;;
12474;SDS011;6302;42.624;23.334;2023-05-10T05:25:02;5.73;;;5.23;;
12474;SDS011;6302;42.624;23.334;2023-05-10T05:27:30;6.37;;;5.37;;
12474;SDS011;6302;42.624;23.334;2023-05-10T05:29:58;5.80;;;5.23;;
12474;SDS011;6302;42.624;23.334;2023-05-10T05:32:25;6.43;;;5.57;;
12474;SDS011;6302;42.624;23.334;2023-05-10T05:34:52;6.27;;;5.67;;
12474;SDS011;6302;42.624;23.334;2023-05-10T05:37:19;6.80;;;6.10;;
12474;SDS011;6302;42.624;23.334;2023-05-10T05:39:47;6.73;;;6.03;;
12474;SDS011;6302;42.624;23.334;2023-05-10T05:42:14;6.60;;;5.90;;
12474;SDS011;6302;42.624;23.334;2023-05-10T05:44:43;6.97;;;6.27;;
12474;SDS011;6302;42.624;23.334;2023-05-10T05:47:12;7.50;;;6.63;;
12474;SDS011;6302;42.624;23.334;2023-05-10T05:49:39;7.57;;;6.80;;
12474;SDS011;6302;42.624;23.334;2023-05-10T05:52:05;8.17;;;7.30;;
12474;SDS011;6302;42.624;23.334;2023-05-10T05:54:32;8.43;;;7.40;;
12474;SDS011;6302;42.624;23.334;2023-05-10T05:56:59;11.10;;;7.73;;
12474;SDS011;6302;42.624;23.334;2023-05-10T05:59:26;9.20;;;7.77;;
12474;SDS011;6302;42.624;23.334;2023-05-10T06:01:53;8.90;;;7.93;;
12474;SDS011;6302;42.624;23.334;2023-05-10T06:04:22;10.53;;;7.33;;
12474;SDS011;6302;42.624;23.334;2023-05-10T06:06:49;9.50;;;7.40;;
12474;SDS011;6302;42.624;23.334;2023-05-10T06:09:16;9.40;;;8.40;;
12474;SDS011;6302;42.624;23.334;2023-05-10T06:11:43;12.20;;;8.97;;
12474;SDS011;6302;42.624;23.334;2023-05-10T06:14:10;9.83;;;8.13;;
12474;SDS011;6302;42.624;23.334;2023-05-10T06:16:36;10.10;;;7.93;;
12474;SDS011;6302;42.624;23.334;2023-05-10T06:19:03;9.00;;;8.00;;
12474;SDS011;6302;42.624;23.334;2023-05-10T06:21:31;9.50;;;8.07;;
12474;SDS011;6302;42.624;23.334;2023-05-10T06:23:58;9.57;;;8.33;;
12474;SDS011;6302;42.624;23.334;2023-05-10T06:26:25;9.20;;;8.17;;
12474;SDS011;6302;42.624;23.334;2023-05-10T06:28:52;10.03;;;7.73;;
12474;SDS011;6302;42.624;23.334;2023-05-10T06:31:18;8.57;;;7.67;;
12474;SDS011;6302;42.624;23.334;2023-05-10T06:33:46;9.93;;;8.93;;
12474;SDS011;6302;42.624;23.334;2023-05-10T06:36:13;10.40;;;8.30;;
12474;SDS011;6302;42.624;23.334;2023-05-10T06:38:41;10.63;;;9.53;;
12474;SDS011;6302;42.624;23.334;2023-05-10T06:41:08;10.87;;;8.83;;
12474;SDS011;6302;42.624;23.334;2023-05-10T06:43:35;10.07;;;8.77;;
12474;SDS011;6302;42.624;23.334;2023-05-10T06:46:04;10.00;;;8.03;;
12474;SDS011;6302;42.624;23.334;2023-05-10T06:48:32;11.20;;;9.03;;
12474;SDS011;6302;42.624;23.334;2023-05-10T06:50:59;8.83;;;7.93;;
12474;SDS011;6302;42.624;23.334;2023-05-10T06:53:25;10.87;;;7.97;;
12474;SDS011;6302;42.624;23.334;2023-05-10T06:55:54;10.27;;;8.80;;
12474;SDS011;6302;42.624;23.334;2023-05-10T06:58:20;9.30;;;8.30;;
12474;SDS011;6302;42.624;23.334;2023-05-10T07:00:47;11.83;;;8.33;;
12474;SDS011;6302;42.624;23.334;2023-05-10T07:03:14;9.40;;;8.00;;
12474;SDS011;6302;42.624;23.334;2023-05-10T07:05:41;9.50;;;8.57;;
12474;SDS011;6302;42.624;23.334;2023-05-10T07:08:08;8.67;;;7.80;;
12474;SDS011;6302;42.624;23.334;2023-05-10T07:10:34;9.20;;;8.30;;
12474;SDS011;6302;42.624;23.334;2023-05-10T07:13:02;10.30;;;8.60;;
12474;SDS011;6302;42.624;23.334;2023-05-10T07:15:29;11.87;;;9.90;;
12474;SDS011;6302;42.624;23.334;2023-05-10T07:17:56;10.87;;;8.00;;
12474;SDS011;6302;42.624;23.334;2023-05-10T07:20:23;9.00;;;7.53;;
12474;SDS011;6302;42.624;23.334;2023-05-10T07:22:50;9.93;;;8.30;;
12474;SDS011;6302;42.624;23.334;2023-05-10T07:25:17;9.23;;;7.80;;
12474;SDS011;6302;42.624;23.334;2023-05-10T07:27:43;10.57;;;8.50;;
12474;SDS011;6302;42.624;23.334;2023-05-10T07:30:14;9.73;;;7.67;;
12474;SDS011;6302;42.624;23.334;2023-05-10T07:32:41;9.63;;;7.70;;
12474;SDS011;6302;42.624;23.334;2023-05-10T07:35:08;9.80;;;8.00;;
12474;SDS011;6302;42.624;23.334;2023-05-10T07:37:35;9.80;;;8.10;;
12474;SDS011;6302;42.624;23.334;2023-05-10T07:40:02;8.87;;;7.97;;
12474;SDS011;6302;42.624;23.334;2023-05-10T07:42:29;9.47;;;8.07;;
12474;SDS011;6302;42.624;23.334;2023-05-10T07:44:56;8.67;;;7.60;;
12474;SDS011;6302;42.624;23.334;2023-05-10T07:47:24;9.63;;;8.57;;
12474;SDS011;6302;42.624;23.334;2023-05-10T07:49:51;12.30;;;9.37;;
12474;SDS011;6302;42.624;23.334;2023-05-10T07:52:17;11.60;;;9.37;;
12474;SDS011;6302;42.624;23.334;2023-05-10T07:54:44;10.97;;;9.13;;
12474;SDS011;6302;42.624;23.334;2023-05-10T07:57:11;9.90;;;8.50;;
12474;SDS011;6302;42.624;23.334;2023-05-10T07:59:39;9.77;;;8.77;;
12474;SDS011;6302;42.624;23.334;2023-05-10T08:02:07;10.67;;;8.70;;
12474;SDS011;6302;42.624;23.334;2023-05-10T08:04:35;10.97;;;8.27;;
12474;SDS011;6302;42.624;23.334;2023-05-10T08:07:02;9.87;;;8.33;;
12474;SDS011;6302;42.624;23.334;2023-05-10T08:09:28;9.57;;;8.53;;
12474;SDS011;6302;42.624;23.334;2023-05-10T08:11:55;9.10;;;8.20;;
12474;SDS011;6302;42.624;23.334;2023-05-10T08:14:23;14.73;;;9.47;;
12474;SDS011;6302;42.624;23.334;2023-05-10T08:16:50;10.93;;;8.87;;
12474;SDS011;6302;42.624;23.334;2023-05-10T08:19:17;9.50;;;8.40;;
12474;SDS011;6302;42.624;23.334;2023-05-10T08:21:47;10.43;;;8.50;;
12474;SDS011;6302;42.624;23.334;2023-05-10T08:24:15;10.97;;;9.43;;
12474;SDS011;6302;42.624;23.334;2023-05-10T08:26:41;8.57;;;7.77;;
12474;SDS011;6302;42.624;23.334;2023-05-10T08:29:08;9.37;;;8.47;;
12474;SDS011;6302;42.624;23.334;2023-05-10T08:31:35;10.10;;;8.30;;
12474;SDS011;6302;42.624;23.334;2023-05-10T08:34:02;8.50;;;7.70;;
12474;SDS011;6302;42.624;23.334;2023-05-10T08:36:29;9.20;;;8.17;;
12474;SDS011;6302;42.624;23.334;2023-05-10T08:38:58;9.37;;;8.00;;
12474;SDS011;6302;42.624;23.334;2023-05-10T08:41:25;10.07;;;7.93;;
12474;SDS011;6302;42.624;23.334;2023-05-10T08:43:52;10.20;;;8.97;;
12474;SDS011;6302;42.624;23.334;2023-05-10T08:46:20;9.47;;;8.47;;
12474;SDS011;6302;42.624;23.334;2023-05-10T08:48:48;10.60;;;9.03;;
12474;SDS011;6302;42.624;23.334;2023-05-10T08:51:17;8.43;;;7.63;;
12474;SDS011;6302;42.624;23.334;2023-05-10T08:53:45;8.63;;;7.73;;
12474;SDS011;6302;42.624;23.334;2023-05-10T08:56:13;9.53;;;7.97;;
12474;SDS011;6302;42.624;23.334;2023-05-10T08:58:42;9.17;;;8.23;;
12474;SDS011;6302;42.624;23.334;2023-05-10T09:01:10;9.00;;;8.20;;
12474;SDS011;6302;42.624;23.334;2023-05-10T09:03:39;9.50;;;8.60;;
12474;SDS011;6302;42.624;23.334;2023-05-10T09:06:06;10.93;;;9.40;;
12474;SDS011;6302;42.624;23.334;2023-05-10T09:08:33;10.83;;;9.73;;
12474;SDS011;6302;42.624;23.334;2023-05-10T09:11:00;9.70;;;8.70;;
12474;SDS011;6302;42.624;23.334;2023-05-10T09:13:29;10.90;;;9.13;;
12474;SDS011;6302;42.624;23.334;2023-05-10T09:15:56;9.60;;;8.60;;
12474;SDS011;6302;42.624;23.334;2023-05-10T09:18:24;9.50;;;8.60;;
12474;SDS011;6302;42.624;23.334;2023-05-10T09:20:50;12.07;;;9.63;;
12474;SDS011;6302;42.624;23.334;2023-05-10T09:23:17;10.77;;;9.30;;
12474;SDS011;6302;42.624;23.334;2023-05-10T09:25:45;10.53;;;9.50;;
12474;SDS011;6302;42.624;23.334;2023-05-10T09:28:12;10.60;;;9.00;;
12474;SDS011;6302;42.624;23.334;2023-05-10T09:30:40;10.10;;;9.10;;
12474;SDS011;6302;42.624;23.334;2023-05-10T09:33:08;10.20;;;9.30;;
12474;SDS011;6302;42.624;23.334;2023-05-10T09:35:34;10.80;;;9.63;;
12474;SDS011;6302;42.624;23.334;2023-05-10T09:38:02;10.53;;;9.43;;
12474;SDS011;6302;42.624;23.334;2023-05-10T09:40:30;10.70;;;9.70;;
12474;SDS011;6302;42.624;23.334;2023-05-10T09:42:58;9.57;;;8.67;;
12474;SDS011;6302;42.624;23.334;2023-05-10T09:45:26;10.03;;;9.03;;
12474;SDS011;6302;42.624;23.334;2023-05-10T09:47:55;10.70;;;9.53;;
12474;SDS011;6302;42.624;23.334;2023-05-10T09:50:23;10.47;;;9.47;;
12474;SDS011;6302;42.624;23.334;2023-05-10T09:52:52;10.30;;;9.03;;
12474;SDS011;6302;42.624;23.334;2023-05-10T09:55:20;9.73;;;8.80;;
12474;SDS011;6302;42.624;23.334;2023-05-10T09:57:48;10.03;;;9.03;;
12474;SDS011;6302;42.624;23.334;2023-05-10T10:00:19;10.50;;;8.50;;
12474;SDS011;6302;42.624;23.334;2023-05-10T10:02:47;10.80;;;8.90;;
12474;SDS011;6302;42.624;23.334;2023-05-10T10:05:21;10.73;;;9.53;;
12474;SDS011;6302;42.624;23.334;2023-05-10T10:07:55;12.10;;;10.90;;
12474;SDS011;6302;42.624;23.334;2023-05-10T10:10:23;11.20;;;9.53;;
12474;SDS011;6302;42.624;23.334;2023-05-10T10:12:50;10.53;;;9.43;;
12474;SDS011;6302;42.624;23.334;2023-05-10T10:15:17;11.57;;;10.37;;
12474;SDS011;6302;42.624;23.334;2023-05-10T10:17:45;10.13;;;8.83;;
12474;SDS011;6302;42.624;23.334;2023-05-10T10:20:12;11.50;;;9.67;;
12474;SDS011;6302;42.624;23.334;2023-05-10T10:22:41;10.60;;;9.37;;
12474;SDS011;6302;42.624;23.334;2023-05-10T10:25:09;11.00;;;10.00;;
12474;SDS011;6302;42.624;23.334;2023-05-10T10:27:40;10.83;;;9.73;;
12474;SDS011;6302;42.624;23.334;2023-05-10T10:30:16;11.83;;;9.80;;
12474;SDS011;6302;42.624;23.334;2023-05-10T10:33:01;10.63;;;9.63;;
12474;SDS011;6302;42.624;23.334;2023-05-10T10:35:39;10.73;;;9.63;;
12474;SDS011;6302;42.624;23.334;2023-05-10T10:38:08;11.07;;;9.80;;
12474;SDS011;6302;42.624;23.334;2023-05-10T10:40:35;11.07;;;9.97;;
12474;SDS011;6302;42.624;23.334;2023-05-10T10:43:21;13.67;;;10.07;;
12474;SDS011;6302;42.624;23.334;2023-05-10T10:46:09;10.67;;;9.57;;
12474;SDS011;6302;42.624;23.334;2023-05-10T10:48:37;9.93;;;9.00;;
12474;SDS011;6302;42.624;23.334;2023-05-10T10:51:04;9.83;;;8.83;;
12474;SDS011;6302;42.624;23.334;2023-05-10T10:53:32;10.53;;;9.50;;
12474;SDS011;6302;42.624;23.334;2023-05-10T10:56:07;10.13;;;8.93;;
12474;SDS011;6302;42.624;23.334;2023-05-10T10:58:35;11.20;;;8.80;;
12474;SDS011;6302;42.624;23.334;2023-05-10T11:01:13;9.30;;;8.40;;
12474;SDS011;6302;42.624;23.334;2023-05-10T11:03:41;9.13;;;8.23;;
12474;SDS011;6302;42.624;23.334;2023-05-10T11:06:41;7.90;;;7.20;;
12474;SDS011;6302;42.624;23.334;2023-05-10T11:09:10;9.57;;;8.30;;
12474;SDS011;6302;42.624;23.334;2023-05-10T11:11:48;9.23;;;8.40;;
12474;SDS011;6302;42.624;23.334;2023-05-10T11:14:15;10.10;;;8.87;;
12474;SDS011;6302;42.624;23.334;2023-05-10T11:16:46;9.43;;;8.33;;
12474;SDS011;6302;42.624;23.334;2023-05-10T11:19:14;10.30;;;8.50;;
12474;SDS011;6302;42.624;23.334;2023-05-10T11:21:46;8.83;;;7.93;;
12474;SDS011;6302;42.624;23.334;2023-05-10T11:24:16;11.27;;;9.03;;
12474;SDS011;6302;42.624;23.334;2023-05-10T11:26:44;11.87;;;8.87;;
12474;SDS011;6302;42.624;23.334;2023-05-10T11:29:12;8.67;;;7.80;;
12474;SDS011;6302;42.624;23.334;2023-05-10T11:31:43;8.60;;;7.70;;
12474;SDS011;6302;42.624;23.334;2023-05-10T11:34:12;9.17;;;8.27;;
12474;SDS011;6302;42.624;23.334;2023-05-10T11:36:50;8.80;;;7.90;;
12474;SDS011;6302;42.624;23.334;2023-05-10T11:39:20;8.77;;;7.73;;
12474;SDS011;6302;42.624;23.334;2023-05-10T11:41:47;9.77;;;8.77;;
12474;SDS011;6302;42.624;23.334;2023-05-10T11:44:15;10.40;;;9.37;;
12474;SDS011;6302;42.624;23.334;2023-05-10T11:46:42;11.30;;;9.13;;
12474;SDS011;6302;42.624;23.334;2023-05-10T11:49:08;10.77;;;8.07;;
12474;SDS011;6302;42.624;23.334;2023-05-10T11:51:38;9.17;;;8.27;;
12474;SDS011;6302;42.624;23.334;2023-05-10T11:54:07;9.50;;;8.60;;
12474;SDS011;6302;42.624;23.334;2023-05-10T11:56:37;9.17;;;8.27;;
12474;SDS011;6302;42.624;23.334;2023-05-10T11:59:04;9.87;;;8.63;;
12474;SDS011;6302;42.624;23.334;2023-05-10T12:01:31;9.97;;;8.50;;
12474;SDS011;6302;42.624;23.334;2023-05-10T12:03:58;10.53;;;8.43;;
12474;SDS011;6302;42.624;23.334;2023-05-10T12:06:26;10.10;;;9.10;;
12474;SDS011;6302;42.624;23.334;2023-05-10T12:08:54;11.50;;;9.30;;
12474;SDS011;6302;42.624;23.334;2023-05-10T12:11:23;9.13;;;8.23;;
12474;SDS011;6302;42.624;23.334;2023-05-10T12:13:52;9.87;;;8.97;;
12474;SDS011;6302;42.624;23.334;2023-05-10T12:16:20;9.63;;;8.67;;
12474;SDS011;6302;42.624;23.334;2023-05-10T12:18:48;9.00;;;8.10;;
12474;SDS011;6302;42.624;23.334;2023-05-10T12:21:16;10.43;;;9.43;;
12474;SDS011;6302;42.624;23.334;2023-05-10T12:23:43;10.20;;;9.17;;
12474;SDS011;6302;42.624;23.334;2023-05-10T12:26:12;13.27;;;9.17;;
12474;SDS011;6302;42.624;23.334;2023-05-10T12:28:39;9.50;;;8.60;;
12474;SDS011;6302;42.624;23.334;2023-05-10T12:31:07;9.30;;;8.30;;
12474;SDS011;6302;42.624;23.334;2023-05-10T12:33:37;11.83;;;9.43;;
12474;SDS011;6302;42.624;23.334;2023-05-10T12:36:06;10.60;;;9.30;;
12474;SDS011;6302;42.624;23.334;2023-05-10T12:38:34;10.40;;;9.23;;
12474;SDS011;6302;42.624;23.334;2023-05-10T12:41:04;12.40;;;9.57;;
12474;SDS011;6302;42.624;23.334;2023-05-10T12:43:32;9.60;;;8.60;;
12474;SDS011;6302;42.624;23.334;2023-05-10T12:46:04;10.13;;;9.10;;
12474;SDS011;6302;42.624;23.334;2023-05-10T12:48:33;12.53;;;9.03;;
12474;SDS011;6302;42.624;23.334;2023-05-10T12:51:00;9.53;;;8.53;;
12474;SDS011;6302;42.624;23.334;2023-05-10T12:53:27;10.37;;;9.27;;
12474;SDS011;6302;42.624;23.334;2023-05-10T12:55:53;9.80;;;8.80;;
12474;SDS011;6302;42.624;23.334;2023-05-10T12:58:20;9.17;;;8.27;;
12474;SDS011;6302;42.624;23.334;2023-05-10T13:00:47;10.07;;;9.07;;
12474;SDS011;6302;42.624;23.334;2023-05-10T13:03:14;11.43;;;8.90;;
12474;SDS011;6302;42.624;23.334;2023-05-10T13:05:42;11.67;;;9.17;;
12474;SDS011;6302;42.624;23.334;2023-05-10T13:08:09;9.33;;;8.10;;
12474;SDS011;6302;42.624;23.334;2023-05-10T13:10:36;9.50;;;8.50;;
12474;SDS011;6302;42.624;23.334;2023-05-10T13:13:02;13.37;;;9.77;;
12474;SDS011;6302;42.624;23.334;2023-05-10T13:15:30;9.40;;;8.47;;
12474;SDS011;6302;42.624;23.334;2023-05-10T13:17:57;10.43;;;8.70;;
12474;SDS011;6302;42.624;23.334;2023-05-10T13:20:24;9.43;;;8.40;;
12474;SDS011;6302;42.624;23.334;2023-05-10T13:22:53;9.27;;;8.27;;
12474;SDS011;6302;42.624;23.334;2023-05-10T13:25:20;9.17;;;8.27;;
12474;SDS011;6302;42.624;23.334;2023-05-10T13:27:47;9.77;;;8.17;;
12474;SDS011;6302;42.624;23.334;2023-05-10T13:30:13;12.17;;;8.90;;
12474;SDS011;6302;42.624;23.334;2023-05-10T13:32:40;10.83;;;9.27;;
12474;SDS011;6302;42.624;23.334;2023-05-10T13:35:07;9.43;;;8.50;;
12474;SDS011;6302;42.624;23.334;2023-05-10T13:37:34;10.20;;;7.97;;
12474;SDS011;6302;42.624;23.334;2023-05-10T13:40:04;9.53;;;8.07;;
12474;SDS011;6302;42.624;23.334;2023-05-10T13:42:32;10.97;;;8.40;;
12474;SDS011;6302;42.624;23.334;2023-05-10T13:44:59;9.33;;;7.80;;
12474;SDS011;6302;42.624;23.334;2023-05-10T13:47:26;10.40;;;8.27;;
12474;SDS011;6302;42.624;23.334;2023-05-10T13:49:53;9.63;;;8.70;;
12474;SDS011;6302;42.624;23.334;2023-05-10T13:52:20;8.93;;;8.03;;
12474;SDS011;6302;42.624;23.334;2023-05-10T13:54:47;8.57;;;7.77;;
12474;SDS011;6302;42.624;23.334;2023-05-10T13:57:15;10.53;;;7.83;;
12474;SDS011;6302;42.624;23.334;2023-05-10T13:59:42;8.83;;;7.90;;
12474;SDS011;6302;42.624;23.334;2023-05-10T14:02:08;10.27;;;7.73;;
12474;SDS011;6302;42.624;23.334;2023-05-10T14:04:35;9.00;;;7.93;;
12474;SDS011;6302;42.624;23.334;2023-05-10T14:07:02;9.37;;;7.87;;
12474;SDS011;6302;42.624;23.334;2023-05-10T14:09:29;9.63;;;8.63;;
12474;SDS011;6302;42.624;23.334;2023-05-10T14:11:56;9.73;;;8.00;;
12474;SDS011;6302;42.624;23.334;2023-05-10T14:14:25;8.57;;;7.57;;
12474;SDS011;6302;42.624;23.334;2023-05-10T14:16:53;9.43;;;7.47;;
12474;SDS011;6302;42.624;23.334;2023-05-10T14:19:20;8.87;;;7.20;;
12474;SDS011;6302;42.624;23.334;2023-05-10T14:21:46;8.53;;;7.47;;
12474;SDS011;6302;42.624;23.334;2023-05-10T14:24:13;8.80;;;7.90;;
12474;SDS011;6302;42.624;23.334;2023-05-10T14:26:40;12.23;;;8.20;;
12474;SDS011;6302;42.624;23.334;2023-05-10T14:29:07;8.63;;;7.73;;
12474;SDS011;6302;42.624;23.334;2023-05-10T14:31:35;8.97;;;7.90;;
12474;SDS011;6302;42.624;23.334;2023-05-10T14:34:02;10.93;;;8.63;;
12474;SDS011;6302;42.624;23.334;2023-05-10T14:36:29;9.03;;;8.03;;
12474;SDS011;6302;42.624;23.334;2023-05-10T14:38:56;8.70;;;7.80;;
12474;SDS011;6302;42.624;23.334;2023-05-10T14:41:23;10.13;;;8.00;;
12474;SDS011;6302;42.624;23.334;2023-05-10T14:43:50;12.63;;;8.77;;
12474;SDS011;6302;42.624;23.334;2023-05-10T14:46:16;10.27;;;8.30;;
12474;SDS011;6302;42.624;23.334;2023-05-10T14:48:45;10.27;;;9.27;;
12474;SDS011;6302;42.624;23.334;2023-05-10T14:51:12;10.83;;;9.53;;